createdAt,value
2018-12-21T00:00:31.483Z,10.80
2018-12-21T00:01:31.406Z,10.70
2018-12-21T00:02:31.320Z,11.60
2018-12-21T00:03:31.244Z,10.60
2018-12-21T00:04:31.145Z,11.00
2018-12-21T00:05:31.058Z,10.70
2018-12-21T00:06:30.981Z,10.90
2018-12-21T00:07:30.896Z,10.80
2018-12-21T00:08:30.807Z,10.60
2018-12-21T00:09:30.720Z,10.10
2018-12-21T00:10:30.634Z,10.60
2018-12-21T00:11:30.558Z,11.00
2018-12-21T00:12:30.471Z,10.90
2018-12-21T00:13:30.383Z,10.90
2018-12-21T00:14:30.296Z,11.50
2018-12-21T00:15:30.208Z,10.70
2018-12-21T00:16:30.134Z,11.90
2018-12-21T00:17:34.442Z,11.30
2018-12-21T00:18:29.958Z,11.80
2018-12-21T00:19:29.872Z,11.30
2018-12-21T00:20:29.784Z,11.30
2018-12-21T00:21:29.698Z,11.50
2018-12-21T00:22:29.623Z,11.70
2018-12-21T00:23:29.548Z,12.10
2018-12-21T00:24:29.447Z,11.50
2018-12-21T00:25:29.393Z,12.00
2018-12-21T00:26:29.273Z,12.10
2018-12-21T00:27:29.197Z,11.50
2018-12-21T00:28:29.110Z,11.60
2018-12-21T00:29:29.023Z,11.00
2018-12-21T00:30:28.949Z,11.90
2018-12-21T00:31:28.852Z,11.90
2018-12-21T00:32:28.763Z,11.30
2018-12-21T00:33:28.685Z,11.90
2018-12-21T00:34:28.598Z,11.40
2018-12-21T00:35:28.511Z,11.70
2018-12-21T00:36:28.425Z,11.50
2018-12-21T00:37:28.337Z,11.70
2018-12-21T00:38:28.249Z,11.90
2018-12-21T00:39:28.174Z,12.20
2018-12-21T00:40:28.088Z,11.70
2018-12-21T00:41:27.999Z,11.10
2018-12-21T00:42:27.913Z,11.60
2018-12-21T00:43:27.824Z,11.30
2018-12-21T00:44:27.737Z,12.40
2018-12-21T00:45:27.661Z,11.60
2018-12-21T00:46:27.578Z,11.70
2018-12-21T00:47:27.500Z,11.90
2018-12-21T00:48:27.399Z,12.20
2018-12-21T00:49:27.312Z,12.10
2018-12-21T00:50:27.230Z,11.60
2018-12-21T00:51:30.347Z,11.30
2018-12-21T00:52:27.061Z,11.00
2018-12-21T00:53:26.976Z,11.70
2018-12-21T00:54:26.887Z,11.60
2018-12-21T00:55:26.803Z,11.40
2018-12-21T00:56:26.713Z,11.80
2018-12-21T00:57:26.637Z,11.50
2018-12-21T00:58:26.551Z,11.80
2018-12-21T00:59:26.463Z,12.00
2018-12-21T01:00:26.377Z,11.90
2018-12-21T01:01:26.288Z,11.40
2018-12-21T01:02:26.201Z,11.20
2018-12-21T01:03:26.115Z,11.20
2018-12-21T01:04:26.038Z,11.20
2018-12-21T01:05:25.952Z,11.00
2018-12-21T01:06:25.866Z,10.70
2018-12-21T01:07:25.777Z,10.80
2018-12-21T01:08:25.688Z,10.50
2018-12-21T01:09:25.604Z,10.80
2018-12-21T01:10:25.527Z,9.90
2018-12-21T01:11:25.441Z,10.10
2018-12-21T01:12:25.352Z,10.30
2018-12-21T01:13:25.265Z,10.10
2018-12-21T01:14:25.178Z,10.20
2018-12-21T01:15:25.091Z,9.80
2018-12-21T01:16:25.015Z,9.70
2018-12-21T01:17:24.928Z,9.80
2018-12-21T01:18:24.841Z,9.30
2018-12-21T01:19:24.769Z,9.10
2018-12-21T01:20:24.665Z,9.00
2018-12-21T01:21:24.577Z,9.00
2018-12-21T01:22:24.491Z,8.90
2018-12-21T01:23:24.415Z,8.80
2018-12-21T01:24:24.329Z,8.50
2018-12-21T01:25:24.240Z,8.20
2018-12-21T01:26:24.195Z,8.60
2018-12-21T01:27:24.084Z,8.70
2018-12-21T01:28:23.979Z,8.40
2018-12-21T01:29:23.907Z,7.90
2018-12-21T01:30:23.815Z,8.70
2018-12-21T01:31:23.728Z,7.80
2018-12-21T01:32:23.643Z,8.00
2018-12-21T01:33:23.556Z,7.80
2018-12-21T01:34:23.479Z,8.00
2018-12-21T01:35:23.391Z,8.10
2018-12-21T01:36:23.309Z,7.60
2018-12-21T01:37:23.218Z,8.00
2018-12-21T01:38:23.130Z,8.00
2018-12-21T01:39:23.042Z,7.60
2018-12-21T01:40:22.956Z,7.40
2018-12-21T01:41:22.880Z,7.70
2018-12-21T01:42:22.793Z,7.50
2018-12-21T01:43:22.710Z,7.30
2018-12-21T01:44:22.617Z,8.00
2018-12-21T01:45:22.530Z,7.60
2018-12-21T01:46:22.446Z,7.60
2018-12-21T01:47:22.381Z,7.50
2018-12-21T01:48:22.281Z,7.40
2018-12-21T01:49:22.194Z,7.00
2018-12-21T01:50:22.111Z,7.10
2018-12-21T01:51:22.019Z,7.20
2018-12-21T01:52:21.943Z,7.30
2018-12-21T01:53:21.861Z,7.30
2018-12-21T01:54:21.782Z,7.10
2018-12-21T01:55:21.683Z,6.90
2018-12-21T01:56:21.594Z,6.90
2018-12-21T01:57:21.518Z,6.90
2018-12-21T01:58:21.433Z,7.00
2018-12-21T01:59:21.359Z,6.40
2018-12-21T02:00:21.260Z,7.00
2018-12-21T02:01:21.186Z,7.00
2018-12-21T02:02:21.083Z,6.60
2018-12-21T02:03:21.012Z,6.80
2018-12-21T02:04:20.920Z,7.00
2018-12-21T02:05:20.910Z,6.90
2018-12-21T02:06:20.846Z,6.80
2018-12-21T02:07:20.659Z,7.00
2018-12-21T02:08:20.573Z,6.50
2018-12-21T02:09:20.497Z,6.70
2018-12-21T02:10:20.410Z,6.80
2018-12-21T02:11:20.322Z,6.70
2018-12-21T02:12:20.234Z,6.50
2018-12-21T02:13:20.150Z,6.40
2018-12-21T02:14:20.072Z,6.60
2018-12-21T02:15:19.985Z,6.90
2018-12-21T02:16:19.909Z,6.30
2018-12-21T02:17:19.811Z,6.40
2018-12-21T02:18:19.723Z,6.30
2018-12-21T02:19:19.648Z,5.90
2018-12-21T02:20:19.560Z,6.30
2018-12-21T02:21:19.473Z,6.10
2018-12-21T02:22:19.385Z,6.30
2018-12-21T02:23:19.317Z,6.20
2018-12-21T02:24:19.223Z,6.00
2018-12-21T02:25:19.135Z,6.10
2018-12-21T02:26:19.049Z,6.20
2018-12-21T02:27:18.961Z,6.40
2018-12-21T02:28:18.873Z,5.90
2018-12-21T02:29:18.811Z,5.80
2018-12-21T02:30:18.713Z,6.10
2018-12-21T02:31:18.625Z,6.20
2018-12-21T02:32:18.538Z,6.00
2018-12-21T02:33:18.449Z,6.00
2018-12-21T02:34:18.374Z,5.60
2018-12-21T02:35:18.287Z,5.90
2018-12-21T02:36:18.201Z,6.00
2018-12-21T02:37:18.115Z,5.60
2018-12-21T02:38:18.025Z,5.80
2018-12-21T02:39:17.951Z,6.00
2018-12-21T02:40:17.863Z,5.90
2018-12-21T02:41:17.775Z,5.90
2018-12-21T02:42:17.828Z,5.60
2018-12-21T02:43:17.601Z,5.40
2018-12-21T02:44:17.528Z,5.70
2018-12-21T02:45:17.440Z,6.00
2018-12-21T02:46:17.365Z,5.60
2018-12-21T02:47:17.265Z,5.50
2018-12-21T02:48:17.176Z,5.30
2018-12-21T02:49:17.104Z,5.70
2018-12-21T02:50:17.013Z,5.70
2018-12-21T02:51:16.926Z,5.90
2018-12-21T02:52:16.845Z,5.60
2018-12-21T02:53:16.751Z,5.70
2018-12-21T02:54:16.679Z,5.80
2018-12-21T02:55:16.590Z,5.40
2018-12-21T02:56:16.511Z,5.30
2018-12-21T02:57:16.416Z,5.50
2018-12-21T02:58:16.331Z,5.70
2018-12-21T02:59:16.252Z,5.30
2018-12-21T03:00:16.167Z,5.80
2018-12-21T03:01:16.196Z,5.60
2018-12-21T03:02:15.996Z,5.70
2018-12-21T03:03:15.904Z,5.30
2018-12-21T03:04:15.828Z,5.70
2018-12-21T03:05:15.742Z,5.40
2018-12-21T03:06:15.653Z,5.50
2018-12-21T03:07:15.565Z,6.30
2018-12-21T03:08:15.482Z,5.80
2018-12-21T03:09:15.404Z,5.90
2018-12-21T03:10:15.316Z,6.40
2018-12-21T03:11:15.228Z,6.20
2018-12-21T03:12:15.141Z,6.00
2018-12-21T03:13:15.055Z,6.10
2018-12-21T03:14:14.978Z,6.20
2018-12-21T03:15:14.895Z,6.20
2018-12-21T03:16:14.806Z,6.60
2018-12-21T03:17:14.716Z,6.20
2018-12-21T03:18:14.629Z,6.90
2018-12-21T03:19:14.554Z,6.70
2018-12-21T03:20:14.467Z,7.10
2018-12-21T03:21:14.378Z,7.00
2018-12-21T03:22:14.951Z,6.90
2018-12-21T03:23:14.205Z,7.20
2018-12-21T03:24:14.130Z,7.70
2018-12-21T03:25:14.043Z,7.50
2018-12-21T03:26:13.954Z,7.30
2018-12-21T03:27:13.868Z,7.40
2018-12-21T03:28:13.793Z,7.70
2018-12-21T03:29:13.705Z,7.50
2018-12-21T03:30:13.620Z,7.40
2018-12-21T03:31:13.532Z,7.50
2018-12-21T03:32:13.446Z,8.10
2018-12-21T03:33:13.357Z,7.40
2018-12-21T03:34:13.271Z,8.10
2018-12-21T03:35:13.207Z,7.70
2018-12-21T03:36:13.109Z,7.20
2018-12-21T03:37:13.020Z,7.40
2018-12-21T03:38:12.931Z,7.40
2018-12-21T03:39:12.846Z,7.60
2018-12-21T03:40:12.769Z,7.90
2018-12-21T03:41:12.685Z,7.80
2018-12-21T03:42:12.596Z,7.90
2018-12-21T03:43:12.506Z,7.60
2018-12-21T03:44:12.420Z,8.10
2018-12-21T03:45:12.333Z,7.60
2018-12-21T03:46:12.258Z,7.90
2018-12-21T03:47:12.172Z,7.70
2018-12-21T03:48:12.081Z,7.90
2018-12-21T03:49:11.996Z,8.40
2018-12-21T03:50:11.907Z,8.00
2018-12-21T03:51:11.832Z,7.70
2018-12-21T03:52:11.746Z,8.50
2018-12-21T03:53:11.672Z,7.90
2018-12-21T03:54:11.572Z,8.10
2018-12-21T03:55:11.484Z,8.40
2018-12-21T03:56:11.402Z,8.80
2018-12-21T03:57:11.331Z,7.80
2018-12-21T03:58:11.234Z,7.40
2018-12-21T03:59:11.147Z,7.90
2018-12-21T04:00:11.071Z,7.90
2018-12-21T04:01:10.972Z,8.10
2018-12-21T04:02:10.885Z,8.50
2018-12-21T04:03:10.811Z,8.50
2018-12-21T04:04:10.723Z,8.90
2018-12-21T04:05:10.637Z,8.30
2018-12-21T04:06:10.547Z,9.20
2018-12-21T04:07:10.473Z,9.70
2018-12-21T04:08:10.384Z,9.20
2018-12-21T04:09:10.303Z,9.80
2018-12-21T04:10:10.210Z,9.30
2018-12-21T04:11:10.126Z,9.10
2018-12-21T04:12:10.034Z,9.60
2018-12-21T04:13:09.950Z,8.90
2018-12-21T04:14:09.873Z,9.20
2018-12-21T04:15:09.785Z,9.10
2018-12-21T04:16:09.699Z,9.80
2018-12-21T04:17:09.610Z,9.10
2018-12-21T04:18:09.524Z,9.00
2018-12-21T04:19:09.452Z,9.30
2018-12-21T04:20:09.369Z,9.20
2018-12-21T04:21:09.276Z,9.60
2018-12-21T04:22:09.187Z,9.10
2018-12-21T04:23:09.104Z,9.10
2018-12-21T04:24:09.016Z,9.50
2018-12-21T04:25:08.938Z,9.40
2018-12-21T04:26:08.851Z,9.20
2018-12-21T04:27:08.783Z,9.80
2018-12-21T04:28:08.675Z,10.30
2018-12-21T04:29:08.587Z,10.00
2018-12-21T04:30:08.513Z,9.70
2018-12-21T04:31:08.428Z,9.50
2018-12-21T04:32:08.341Z,9.80
2018-12-21T04:33:08.252Z,9.90
2018-12-21T04:34:08.221Z,10.30
2018-12-21T04:35:08.087Z,9.90
2018-12-21T04:36:08.001Z,10.40
2018-12-21T04:37:07.914Z,10.60
2018-12-21T04:38:07.827Z,10.70
2018-12-21T04:39:07.739Z,10.60
2018-12-21T04:40:07.656Z,10.70
2018-12-21T04:41:07.577Z,10.10
2018-12-21T04:42:07.487Z,10.60
2018-12-21T04:43:07.403Z,10.10
2018-12-21T04:44:07.312Z,9.90
2018-12-21T04:45:07.228Z,10.60
2018-12-21T04:46:07.139Z,11.30
2018-12-21T04:47:07.063Z,11.30
2018-12-21T04:48:06.977Z,10.20
2018-12-21T04:49:06.896Z,10.70
2018-12-21T04:50:06.808Z,10.50
2018-12-21T04:51:06.714Z,11.10
2018-12-21T04:52:06.640Z,11.20
2018-12-21T04:53:06.552Z,11.10
2018-12-21T04:54:06.465Z,11.20
2018-12-21T04:55:06.378Z,11.20
2018-12-21T04:56:06.290Z,11.00
2018-12-21T04:57:06.219Z,11.00
2018-12-21T04:58:06.127Z,11.10
2018-12-21T04:59:06.040Z,11.10
2018-12-21T05:00:05.952Z,10.60
2018-12-21T05:01:05.865Z,11.40
2018-12-21T05:02:05.784Z,11.40
2018-12-21T05:03:05.703Z,11.00
2018-12-21T05:04:05.617Z,10.20
2018-12-21T05:05:05.531Z,10.90
2018-12-21T05:06:05.453Z,10.90
2018-12-21T05:07:12.369Z,11.60
2018-12-21T05:08:05.268Z,11.20
2018-12-21T05:09:05.324Z,10.90
2018-12-21T05:10:05.103Z,11.10
2018-12-21T05:11:05.026Z,11.50
2018-12-21T05:12:04.931Z,11.30
2018-12-21T05:13:04.853Z,10.50
2018-12-21T05:14:04.766Z,11.10
2018-12-21T05:15:04.684Z,11.40
2018-12-21T05:16:04.591Z,10.90
2018-12-21T05:17:04.504Z,10.90
2018-12-21T05:18:04.417Z,11.20
2018-12-21T05:19:04.342Z,11.70
2018-12-21T05:20:04.255Z,11.40
2018-12-21T05:21:04.294Z,11.20
2018-12-21T05:22:04.080Z,12.10
2018-12-21T05:23:03.992Z,11.50
2018-12-21T05:24:03.906Z,11.10
2018-12-21T05:25:03.831Z,11.10
2018-12-21T05:26:03.742Z,11.20
2018-12-21T05:27:03.656Z,10.80
2018-12-21T05:28:03.569Z,11.40
2018-12-21T05:29:03.481Z,11.10
2018-12-21T05:30:03.425Z,11.40
2018-12-21T05:31:03.318Z,11.40
2018-12-21T05:32:03.234Z,11.40
2018-12-21T05:33:03.143Z,11.30
2018-12-21T05:34:03.058Z,11.30
2018-12-21T05:35:02.972Z,11.50
2018-12-21T05:36:02.895Z,11.20
2018-12-21T05:37:02.807Z,10.80
2018-12-21T05:38:02.719Z,11.10
2018-12-21T05:39:02.636Z,12.10
2018-12-21T05:40:02.794Z,11.60
2018-12-21T05:41:02.469Z,11.30
2018-12-21T05:42:02.384Z,11.00
2018-12-21T05:43:02.294Z,10.70
2018-12-21T05:44:02.207Z,11.50
2018-12-21T05:45:02.120Z,12.00
2018-12-21T05:46:02.044Z,11.50
2018-12-21T05:47:01.960Z,11.20
2018-12-21T05:48:01.982Z,12.10
2018-12-21T05:49:01.784Z,11.80
2018-12-21T05:50:01.698Z,11.80
2018-12-21T05:51:01.609Z,11.50
2018-12-21T05:52:01.533Z,11.70
2018-12-21T05:53:01.446Z,11.60
2018-12-21T05:54:01.358Z,11.30
2018-12-21T05:55:01.270Z,11.10
2018-12-21T05:56:01.183Z,11.30
2018-12-21T05:57:01.097Z,11.00
2018-12-21T05:58:01.020Z,10.80
2018-12-21T05:59:00.934Z,10.60
2018-12-21T06:00:00.847Z,11.10
2018-12-21T06:01:00.853Z,11.00
2018-12-21T06:02:00.671Z,10.80
2018-12-21T06:03:00.596Z,10.30
2018-12-21T06:04:00.510Z,10.30
2018-12-21T06:05:00.421Z,10.30
2018-12-21T06:06:00.336Z,10.60
2018-12-21T06:07:00.248Z,10.60
2018-12-21T06:08:00.160Z,10.60
2018-12-21T06:09:00.087Z,11.30
2018-12-21T06:09:59.996Z,10.60
2018-12-21T06:10:59.911Z,9.70
2018-12-21T06:11:59.825Z,10.90
2018-12-21T06:12:59.736Z,11.20
2018-12-21T06:14:01.063Z,11.50
2018-12-21T06:14:59.572Z,11.00
2018-12-21T06:15:59.491Z,11.00
2018-12-21T06:16:59.398Z,10.60
2018-12-21T06:17:59.312Z,11.20
2018-12-21T06:18:59.223Z,11.70
2018-12-21T06:19:59.148Z,11.00
2018-12-21T06:20:59.061Z,11.50
2018-12-21T06:21:58.975Z,11.40
2018-12-21T06:22:58.886Z,12.20
2018-12-21T06:23:58.801Z,12.00
2018-12-21T06:24:58.712Z,12.00
2018-12-21T06:25:58.637Z,12.70
2018-12-21T06:26:58.548Z,12.30
2018-12-21T06:27:58.461Z,12.20
2018-12-21T06:28:58.386Z,12.20
2018-12-21T06:29:58.300Z,12.50
2018-12-21T06:30:58.213Z,12.90
2018-12-21T06:31:58.125Z,12.00
2018-12-21T06:32:58.038Z,12.00
2018-12-21T06:33:57.949Z,12.00
2018-12-21T06:34:57.863Z,12.30
2018-12-21T06:35:57.780Z,12.00
2018-12-21T06:36:57.700Z,12.90
2018-12-21T06:37:57.613Z,12.60
2018-12-21T06:38:57.525Z,11.90
2018-12-21T06:39:57.438Z,11.40
2018-12-21T06:40:57.350Z,12.10
2018-12-21T06:41:57.275Z,11.80
2018-12-21T06:42:57.188Z,11.70
2018-12-21T06:43:57.123Z,12.60
2018-12-21T06:44:57.016Z,11.80
2018-12-21T06:45:56.939Z,12.40
2018-12-21T06:46:56.851Z,12.40
2018-12-21T06:47:56.769Z,11.70
2018-12-21T06:48:56.676Z,11.70
2018-12-21T06:49:56.589Z,12.10
2018-12-21T06:50:56.501Z,11.90
2018-12-21T06:51:56.414Z,12.20
2018-12-21T06:52:56.339Z,12.80
2018-12-21T06:53:56.251Z,11.50
2018-12-21T06:54:56.165Z,11.60
2018-12-21T06:55:56.077Z,11.90
2018-12-21T06:56:55.990Z,11.50
2018-12-21T06:57:55.915Z,12.10
2018-12-21T06:58:55.827Z,12.00
2018-12-21T06:59:55.992Z,11.60
2018-12-21T07:00:55.652Z,11.70
2018-12-21T07:01:55.566Z,11.90
2018-12-21T07:02:55.490Z,10.50
2018-12-21T07:03:55.402Z,11.40
2018-12-21T07:04:55.316Z,12.50
2018-12-21T07:05:55.229Z,12.10
2018-12-21T07:06:55.141Z,12.20
2018-12-21T07:07:55.054Z,12.10
2018-12-21T07:08:55.074Z,12.00
2018-12-21T07:09:54.891Z,12.00
2018-12-21T07:10:54.803Z,12.00
2018-12-21T07:11:54.717Z,12.60
2018-12-21T07:12:54.633Z,11.50
2018-12-21T07:13:54.553Z,11.60
2018-12-21T07:14:54.476Z,12.10
2018-12-21T07:15:54.381Z,12.20
2018-12-21T07:16:54.293Z,12.20
2018-12-21T07:17:54.204Z,12.10
2018-12-21T07:18:54.143Z,11.40
2018-12-21T07:19:54.041Z,11.00
2018-12-21T07:20:53.954Z,11.40
2018-12-21T07:21:53.872Z,11.50
2018-12-21T07:22:53.781Z,12.30
2018-12-21T07:23:53.693Z,12.00
2018-12-21T07:24:53.619Z,12.60
2018-12-21T07:25:53.542Z,11.90
2018-12-21T07:26:53.445Z,11.20
2018-12-21T07:27:53.355Z,12.40
2018-12-21T07:28:53.275Z,12.20
2018-12-21T07:29:53.194Z,13.10
2018-12-21T07:30:53.105Z,12.00
2018-12-21T07:31:53.019Z,11.70
2018-12-21T07:32:52.930Z,11.80
2018-12-21T07:33:52.843Z,12.20
2018-12-21T07:34:52.769Z,11.40
2018-12-21T07:35:52.681Z,12.00
2018-12-21T07:36:52.595Z,12.30
2018-12-21T07:37:52.506Z,12.90
2018-12-21T07:38:52.419Z,12.40
2018-12-21T07:39:52.333Z,11.20
2018-12-21T07:40:52.256Z,11.60
2018-12-21T07:41:52.169Z,11.90
2018-12-21T07:42:52.081Z,11.20
2018-12-21T07:43:51.997Z,12.20
2018-12-21T07:44:51.907Z,12.00
2018-12-21T07:45:51.831Z,13.20
2018-12-21T07:46:51.745Z,12.20
2018-12-21T07:47:51.657Z,11.90
2018-12-21T07:48:51.571Z,12.10
2018-12-21T07:49:51.482Z,12.10
2018-12-21T07:50:51.412Z,12.30
2018-12-21T07:51:51.320Z,12.10
2018-12-21T07:52:53.235Z,12.50
2018-12-21T07:53:51.146Z,11.50
2018-12-21T07:54:51.057Z,11.80
2018-12-21T07:55:50.971Z,11.80
2018-12-21T07:56:50.896Z,12.60
2018-12-21T07:57:50.807Z,11.20
2018-12-21T07:58:57.110Z,11.30
2018-12-21T07:59:50.635Z,11.10
2018-12-21T08:00:50.558Z,10.70
2018-12-21T08:01:50.460Z,11.60
2018-12-21T08:02:50.397Z,11.50
2018-12-21T08:03:50.296Z,11.40
2018-12-21T08:04:50.208Z,11.40
2018-12-21T08:05:50.122Z,11.10
2018-12-21T08:06:50.034Z,9.90
2018-12-21T08:07:50.062Z,10.30
2018-12-21T08:08:49.875Z,10.70
2018-12-21T08:09:49.796Z,10.40
2018-12-21T08:10:49.697Z,10.70
2018-12-21T08:11:49.609Z,11.20
2018-12-21T08:12:49.534Z,10.80
2018-12-21T08:13:49.447Z,9.60
2018-12-21T08:14:49.360Z,10.20
2018-12-21T08:15:49.273Z,9.80
2018-12-21T08:16:49.197Z,10.30
2018-12-21T08:17:49.099Z,10.30
2018-12-21T08:18:49.022Z,10.40
2018-12-21T08:19:48.936Z,10.10
2018-12-21T08:20:48.847Z,10.30
2018-12-21T08:21:48.759Z,9.70
2018-12-21T08:22:48.672Z,10.40
2018-12-21T08:23:48.598Z,9.50
2018-12-21T08:24:48.511Z,9.70
2018-12-21T08:25:48.423Z,10.20
2018-12-21T08:26:48.335Z,10.00
2018-12-21T08:27:48.252Z,10.50
2018-12-21T08:28:48.162Z,10.60
2018-12-21T08:29:48.098Z,10.20
2018-12-21T08:30:47.999Z,10.30
2018-12-21T08:31:47.911Z,10.40
2018-12-21T08:32:47.824Z,9.40
2018-12-21T08:33:47.737Z,9.80
2018-12-21T08:34:47.661Z,9.50
2018-12-21T08:35:47.574Z,9.60
2018-12-21T08:36:47.488Z,9.00
2018-12-21T08:37:47.404Z,9.70
2018-12-21T08:38:47.312Z,9.60
2018-12-21T08:39:47.236Z,9.10
2018-12-21T08:40:47.152Z,9.40
2018-12-21T08:41:47.075Z,9.20
2018-12-21T08:42:46.979Z,8.90
2018-12-21T08:43:46.889Z,9.20
2018-12-21T08:44:46.815Z,9.20
2018-12-21T08:45:46.726Z,9.30
2018-12-21T08:46:46.641Z,8.80
2018-12-21T08:47:46.550Z,9.30
2018-12-21T08:48:46.463Z,8.60
2018-12-21T08:49:46.376Z,8.10
2018-12-21T08:50:46.302Z,8.30
2018-12-21T08:51:46.214Z,8.20
2018-12-21T08:52:46.126Z,8.90
2018-12-21T08:53:52.468Z,8.40
2018-12-21T08:54:45.952Z,8.50
2018-12-21T08:55:45.865Z,8.40
2018-12-21T08:56:45.788Z,7.60
2018-12-21T08:57:45.701Z,7.70
2018-12-21T08:58:45.615Z,7.50
2018-12-21T08:59:45.527Z,8.10
2018-12-21T09:00:45.440Z,7.50
2018-12-21T09:01:45.364Z,7.10
2018-12-21T09:02:45.278Z,7.40
2018-12-21T09:03:45.190Z,7.40
2018-12-21T09:04:45.108Z,7.40
2018-12-21T09:05:45.015Z,7.10
2018-12-21T09:06:44.939Z,6.50
2018-12-21T09:07:44.853Z,7.30
2018-12-21T09:08:44.777Z,7.00
2018-12-21T09:09:44.793Z,6.80
2018-12-21T09:10:44.622Z,6.60
2018-12-21T09:11:44.516Z,6.90
2018-12-21T09:12:44.428Z,6.40
2018-12-21T09:13:44.341Z,6.50
2018-12-21T09:14:44.253Z,6.60
2018-12-21T09:15:44.178Z,6.10
2018-12-21T09:16:44.090Z,5.90
2018-12-21T09:17:44.006Z,5.50
2018-12-21T09:18:43.917Z,5.60
2018-12-21T09:19:43.834Z,5.40
2018-12-21T09:20:43.740Z,5.90
2018-12-21T09:21:43.666Z,5.40
2018-12-21T09:22:43.579Z,5.40
2018-12-21T09:23:43.492Z,5.30
2018-12-21T09:24:43.404Z,5.40
2018-12-21T09:25:43.316Z,5.10
2018-12-21T09:26:43.242Z,5.00
2018-12-21T09:27:43.155Z,4.30
2018-12-21T09:28:43.067Z,4.90
2018-12-21T09:29:42.981Z,4.90
2018-12-21T09:30:42.898Z,5.20
2018-12-21T09:31:42.817Z,4.80
2018-12-21T09:32:42.730Z,5.00
2018-12-21T09:33:42.642Z,4.30
2018-12-21T09:34:42.567Z,4.50
2018-12-21T09:35:42.544Z,4.70
2018-12-21T09:36:43.073Z,4.70
2018-12-21T09:37:42.307Z,4.70
2018-12-21T09:38:42.223Z,4.40
2018-12-21T09:39:42.132Z,4.30
2018-12-21T09:40:42.044Z,4.00
2018-12-21T09:41:41.968Z,4.10
2018-12-21T09:42:41.881Z,4.50
2018-12-21T09:43:41.794Z,3.90
2018-12-21T09:44:41.706Z,4.70
2018-12-21T09:45:41.631Z,4.10
2018-12-21T09:46:41.556Z,4.00
2018-12-21T09:47:41.459Z,4.20
2018-12-21T09:48:41.368Z,4.10
2018-12-21T09:49:41.284Z,4.20
2018-12-21T09:50:41.207Z,4.00
2018-12-21T09:51:41.118Z,4.20
2018-12-21T09:52:41.033Z,4.30
2018-12-21T09:53:40.945Z,3.90
2018-12-21T09:54:40.869Z,4.00
2018-12-21T09:55:40.784Z,4.10
2018-12-21T09:56:40.694Z,3.60
2018-12-21T09:57:40.607Z,3.70
2018-12-21T09:58:40.535Z,3.90
2018-12-21T09:59:40.446Z,3.80
2018-12-21T10:00:40.357Z,4.10
2018-12-21T10:01:40.283Z,3.70
2018-12-21T10:02:40.183Z,3.70
2018-12-21T10:03:40.108Z,3.60
2018-12-21T10:04:40.019Z,4.00
2018-12-21T10:05:39.945Z,3.80
2018-12-21T10:06:39.849Z,3.70
2018-12-21T10:07:39.773Z,3.70
2018-12-21T10:08:39.683Z,3.70
2018-12-21T10:09:39.595Z,3.70
2018-12-21T10:10:39.509Z,3.70
2018-12-21T10:11:39.425Z,3.40
2018-12-21T10:12:39.348Z,3.40
2018-12-21T10:13:39.260Z,2.90
2018-12-21T10:14:39.172Z,3.30
2018-12-21T10:15:39.088Z,3.10
2018-12-21T10:16:39.010Z,3.10
2018-12-21T10:17:38.934Z,3.30
2018-12-21T10:18:38.835Z,3.00
2018-12-21T10:19:38.748Z,3.10
2018-12-21T10:20:38.672Z,3.10
2018-12-21T10:21:38.585Z,3.10
2018-12-21T10:22:38.498Z,3.20
2018-12-21T10:23:38.410Z,3.20
2018-12-21T10:24:38.342Z,2.90
2018-12-21T10:25:38.247Z,3.10
2018-12-21T10:26:38.163Z,3.10
2018-12-21T10:27:38.178Z,3.20
2018-12-21T10:28:37.997Z,2.90
2018-12-21T10:29:37.911Z,3.10
2018-12-21T10:30:37.825Z,2.70
2018-12-21T10:31:37.736Z,2.70
2018-12-21T10:32:37.664Z,3.10
2018-12-21T10:33:37.573Z,2.80
2018-12-21T10:34:37.486Z,2.60
2018-12-21T10:35:37.397Z,3.20
2018-12-21T10:36:37.431Z,2.90
2018-12-21T10:37:37.237Z,2.80
2018-12-21T10:38:37.148Z,2.80
2018-12-21T10:39:37.063Z,2.40
2018-12-21T10:40:36.988Z,2.60
2018-12-21T10:41:36.899Z,2.70
2018-12-21T10:42:36.812Z,2.30
2018-12-21T10:43:36.723Z,2.60
2018-12-21T10:44:36.650Z,2.00
2018-12-21T10:45:41.528Z,2.90
2018-12-21T10:46:36.474Z,2.70
2018-12-21T10:47:36.387Z,2.30
2018-12-21T10:48:37.497Z,2.50
2018-12-21T10:49:36.225Z,2.80
2018-12-21T10:50:36.139Z,2.60
2018-12-21T10:51:36.050Z,2.40
2018-12-21T10:52:35.975Z,2.50
2018-12-21T10:53:35.894Z,2.70
2018-12-21T10:54:35.802Z,2.70
2018-12-21T10:55:35.712Z,2.70
2018-12-21T10:56:35.637Z,2.40
2018-12-21T10:57:35.554Z,2.70
2018-12-21T10:58:35.464Z,2.60
2018-12-21T10:59:43.205Z,2.30
2018-12-21T11:00:35.302Z,2.70
2018-12-21T11:01:35.214Z,2.50
2018-12-21T11:02:35.125Z,2.50
2018-12-21T11:03:35.044Z,2.60
2018-12-21T11:04:34.964Z,2.60
2018-12-21T11:05:34.876Z,2.40
2018-12-21T11:06:34.790Z,2.40
2018-12-21T11:07:34.719Z,2.40
2018-12-21T11:08:34.626Z,2.40
2018-12-21T11:09:34.544Z,2.70
2018-12-21T11:10:34.452Z,2.50
2018-12-21T11:11:34.365Z,2.70
2018-12-21T11:12:34.290Z,2.50
2018-12-21T11:13:34.215Z,2.20
2018-12-21T11:14:34.115Z,2.40
2018-12-21T11:15:34.027Z,2.40
2018-12-21T11:16:33.954Z,2.30
2018-12-21T11:17:33.865Z,2.20
2018-12-21T11:18:33.777Z,2.50
2018-12-21T11:19:33.691Z,2.20
2018-12-21T11:20:33.615Z,2.20
2018-12-21T11:21:33.527Z,2.60
2018-12-21T11:22:33.441Z,2.50
2018-12-21T11:23:33.354Z,2.40
2018-12-21T11:24:35.557Z,2.40
2018-12-21T11:25:33.192Z,2.30
2018-12-21T11:26:33.102Z,2.30
2018-12-21T11:27:33.029Z,2.40
2018-12-21T11:28:32.941Z,2.40
2018-12-21T11:29:32.853Z,2.60
2018-12-21T11:30:32.766Z,2.30
2018-12-21T11:31:32.692Z,2.20
2018-12-21T11:32:32.604Z,2.70
2018-12-21T11:33:32.518Z,2.50
2018-12-21T11:34:32.442Z,2.60
2018-12-21T11:35:32.354Z,2.30
2018-12-21T11:36:32.267Z,2.40
2018-12-21T11:37:32.180Z,2.40
2018-12-21T11:38:32.104Z,2.40
2018-12-21T11:39:32.019Z,2.40
2018-12-21T11:40:31.933Z,2.60
2018-12-21T11:41:31.843Z,2.80
2018-12-21T11:42:31.768Z,2.10
2018-12-21T11:43:31.680Z,2.20
2018-12-21T11:44:31.596Z,2.30
2018-12-21T11:45:31.506Z,2.60
2018-12-21T11:46:31.430Z,2.40
2018-12-21T11:47:31.345Z,2.40
2018-12-21T11:48:31.256Z,2.10
2018-12-21T11:49:31.170Z,2.20
2018-12-21T11:50:31.095Z,2.40
2018-12-21T11:51:31.019Z,2.40
2018-12-21T11:52:30.919Z,2.30
2018-12-21T11:53:30.832Z,2.30
2018-12-21T11:54:30.757Z,2.40
2018-12-21T11:55:30.669Z,2.20
2018-12-21T11:56:30.581Z,2.60
2018-12-21T11:57:30.494Z,2.30
2018-12-21T11:58:30.421Z,2.70
2018-12-21T11:59:30.331Z,2.70
2018-12-21T12:00:30.245Z,2.50
2018-12-21T12:01:30.158Z,3.00
2018-12-21T12:02:30.083Z,2.80
2018-12-21T12:03:29.995Z,2.60
2018-12-21T12:04:29.908Z,2.40
2018-12-21T12:05:29.821Z,2.80
2018-12-21T12:06:29.746Z,2.70
2018-12-21T12:07:29.660Z,2.70
2018-12-21T12:08:29.570Z,2.90
2018-12-21T12:09:29.484Z,2.60
2018-12-21T12:10:29.408Z,2.50
2018-12-21T12:11:29.325Z,2.70
2018-12-21T12:12:29.247Z,2.90
2018-12-21T12:13:29.147Z,2.40
2018-12-21T12:14:29.061Z,2.90
2018-12-21T12:15:28.984Z,2.90
2018-12-21T12:16:28.897Z,2.80
2018-12-21T12:17:28.809Z,2.80
2018-12-21T12:18:28.722Z,2.50
2018-12-21T12:19:28.671Z,2.90
2018-12-21T12:20:28.680Z,2.80
2018-12-21T12:21:28.473Z,2.70
2018-12-21T12:22:28.397Z,2.70
2018-12-21T12:23:28.309Z,2.30
2018-12-21T12:24:28.225Z,2.70
2018-12-21T12:25:28.134Z,2.80
2018-12-21T12:26:28.048Z,2.90
2018-12-21T12:27:27.972Z,2.80
2018-12-21T12:28:27.884Z,2.60
2018-12-21T12:29:27.798Z,2.70
2018-12-21T12:30:27.709Z,2.70
2018-12-21T12:31:27.635Z,2.50
2018-12-21T12:32:27.548Z,2.90
2018-12-21T12:33:27.462Z,2.70
2018-12-21T12:34:27.373Z,2.80
2018-12-21T12:35:27.287Z,2.90
2018-12-21T12:36:27.211Z,2.90
2018-12-21T12:37:27.128Z,2.50
2018-12-21T12:38:27.036Z,2.70
2018-12-21T12:39:26.949Z,3.10
2018-12-21T12:40:26.874Z,2.90
2018-12-21T12:41:26.786Z,2.70
2018-12-21T12:42:26.701Z,3.00
2018-12-21T12:43:26.611Z,2.70
2018-12-21T12:44:26.536Z,2.80
2018-12-21T12:45:26.450Z,3.10
2018-12-21T12:46:26.362Z,3.10
2018-12-21T12:47:26.275Z,3.40
2018-12-21T12:48:26.188Z,3.10
2018-12-21T12:49:27.936Z,3.00
2018-12-21T12:50:26.026Z,3.00
2018-12-21T12:51:25.938Z,3.00
2018-12-21T12:52:25.850Z,3.10
2018-12-21T12:53:25.776Z,3.40
2018-12-21T12:54:25.688Z,3.00
2018-12-21T12:55:25.601Z,3.40
2018-12-21T12:56:25.513Z,3.20
2018-12-21T12:57:25.438Z,2.80
2018-12-21T12:58:25.351Z,3.00
2018-12-21T12:59:25.262Z,3.20
2018-12-21T13:00:25.178Z,3.30
2018-12-21T13:01:25.101Z,3.30
2018-12-21T13:02:25.016Z,3.10
2018-12-21T13:03:24.929Z,3.00
2018-12-21T13:04:24.839Z,3.10
2018-12-21T13:05:24.752Z,3.40
2018-12-21T13:06:24.677Z,2.90
2018-12-21T13:07:24.591Z,3.50